AirNav   Duncan Aviation - Near you to keep you flying
 
 641 users online  

KVLL Oakland/Troy Airport
Troy, Michigan, USA

GOING TO TROY?


FAA INFORMATION EFFECTIVE 16 JUNE 2022

Location

FAA Identifier: VLL
Lat/Long: 42-32-34.6000N 083-10-40.4000W
42-32.576667N 083-10.673333W
42.5429444,-83.1778889
(estimated)
Elevation: 727.2 ft. / 221.7 m (surveyed)
Variation: 06W (1995)
From city: 2 miles E of TROY, MI
Time zone: UTC -4 (UTC -5 during Standard Time)
Zip code: 48084

Airport Operations

Airport use: Open to the public
Control tower: no
ARTCC: CLEVELAND CENTER
FSS: LANSING FLIGHT SERVICE STATION
NOTAMs facility: VLL (NOTAM-D service available)
Attendance: 0800-1800
Pattern altitude: 1727.2 ft. MSL
Wind indicator: lighted
Segmented circle: no
Lights: ACTVT PAPI RWY 09 & 27; MIRL RWY 09/27 - CTAF.
Beacon: white-green (lighted land airport)
Operates sunset to sunrise.
Landing fee: yes

Airport Communications

CTAF/UNICOM: 123.05
WX AWOS-3: 119.475 (248-288-4649)
DETROIT APPROACH: 134.3
DETROIT DEPARTURE: 134.3
WX ASOS at DET (11 nm SE): PHONE 313-371-9696
WX ASOS at PTK (13 nm NW): 125.025 (248-886-8551)

Airport Services

Fuel available: 100LL JET-A+
Parking: hangars and tiedowns
Airframe service: NONE
Powerplant service: NONE

Runway Information

Runway 9/27

Dimensions: 3549 x 60 ft. / 1082 x 18 m
Surface: asphalt, in excellent condition
Runway edge lights: medium intensity
RUNWAY 9  RUNWAY 27
Latitude: 42-32.575973N42-32.578848N
Longitude: 083-11.068925W083-10.278788W
Elevation: 727.0 ft.701.0 ft.
Traffic pattern: leftleft
Runway heading: 096 magnetic, 090 true276 magnetic, 270 true
Markings: nonprecision, in good conditionnonprecision, in good condition
Visual slope indicator: 2-light PAPI on right (3.75 degrees glide path)2-light PAPI on left (3.75 degrees glide path)
Runway end identifier lights: nono
Touchdown point: yes, no lightsyes, no lights
Obstructions: 52 ft. tree, 205 ft. from runway, 170 ft. left of centerline, 1:1 slope to clear24 ft. tree, 571 ft. from runway, 120 ft. right of centerline, 15:1 slope to clear

Airport Ownership and Management from official FAA records

Ownership: Publicly-owned
Owner: OAKLAND COUNTY
6500 PATTERSON PKWY
WATERFORD, MI 48327-1683
Phone 248-666-3900
Manager: CHERYL BUSH
6500 PATTERSON PKWY
WATERFORD, MI 48327-1683
Phone 248-666-3900
ARPT PHYS ADS: 2672 INDUSTRIAL ROW DR, TROY, MI 48084.

Airport Operational Statistics

Aircraft based on the field: 106
Single engine airplanes: 95
Multi engine airplanes: 4
Helicopters: 6
Ultralights: 1
    
Aircraft operations: avg 82/day *
50% transient general aviation
50% local general aviation
* for 12-month period ending 31 December 2021

Additional Remarks

DEER & LRG BIRDS ON & INVOF ARPT.
NO TGL OR PRACTICE TFC PATTERNS.
FOR CD CTC DETROIT APCH AT 734-955-1404.

Instrument Procedures

NOTE: All procedures below are presented as PDF files. If you need a reader for these files, you should download the free Adobe Reader.

NOT FOR NAVIGATION. Please procure official charts for flight.
FAA instrument procedures published for use from 16 June 2022 at 0901Z to 14 July 2022 at 0900z.

 
STARs - Standard Terminal Arrivals
FOREY TWO (RNAV)   download (159KB)
OKLND ONE (RNAV)   download (144KB)
PETTE TWO (RNAV)   download (209KB)
RRALF THREE (RNAV)   download (161KB)
 
IAPs - Instrument Approach Procedures
RNAV (GPS) RWY 09   download (183KB)
 
Departure Procedures
BARII TWO (RNAV)   download (161KB)
CCOBB TWO (RNAV)   download (197KB)
CLVIN TWO (RNAV)   download (175KB)
HHOWE THREE (RNAV)   download (184KB)
KAYLN TWO (RNAV)   download (163KB)
LIDDS TWO (RNAV)   download (177KB)
MIGGY TWO (RNAV)   download (194KB)
PAVYL TWO (RNAV)   download (173KB)
SNDRS TWO (RNAV)   download (208KB)
TRMML THREE (RNAV)   download (165KB)
ZETTR THREE (RNAV)   download (206KB)
NOTE: Special Take-Off Minimums/Departure Procedures apply   download (125KB)

Other nearby airports with instrument procedures:

KDET - Coleman A Young Municipal Airport (11 nm SE)
KPTK - Oakland County International Airport (13 nm NW)
KMTC - Selfridge Air National Guard Base (16 nm E)
1D2 - Canton-Plymouth-Mettetal Airport (17 nm SW)
57D - Ray Community Airport (17 nm NE)
D98 - Romeo State Airport (18 nm NE)
Y47 - Oakland Southwest Airport (20 nm W)
 
Loc | Ops | Rwys | IFR | FBO | Links
Com | Nav | Svcs | Stats | Notes
Area around KVLL (Oakland/Troy Airport)
 
Road maps at: MapQuest Bing Google
 
Aerial photo
WARNING: Photo may not be current or correct
Aerial photo of KVLL (Oakland/Troy Airport)
Photo by Jeff Schuster
Photo taken 29-Jun-2014
looking west.

Do you have a better or more recent aerial photo of Oakland/Troy Airport that you would like to share? If so, please send us your photo.

 
Sectional chart

 
Airport distance calculator
Flying to Oakland/Troy Airport? Find the distance to fly.

From to KVLL

Sunrise and sunset
Times for 25-Jun-2022
 Local
(UTC-4)
 Zulu
(UTC)
Morning civil twilight05:2209:22
Sunrise05:5709:57
Sunset21:1301:13
Evening civil twilight21:4801:48

Current date and time
Zulu (UTC)  25-Jun-2022 11:08:24
Local (UTC-4)  25-Jun-2022 07:08:24
 
METAR
KVLL 251055Z AUTO 00000KT 10SM CLR 21/16 A3011 RMK AO2 T02090156
KDET 
11nm SE 
251053Z 00000KT 10SM CLR 21/17 A3010 RMK AO2 SLP188 T02110167
KPTK 
13nm NW 
251053Z 00000KT 10SM FEW250 19/16 A3010 RMK AO2 SLP186 T01940156
KMTC 
17nm E 
251056Z AUTO 00000KT 10SM CLR 18/18 A3007 RMK AO2 SLP184 T01800178
CYQG 
19nm SE 
251000Z AUTO 11002KT 9SM CLR 17/16 A3009 RMK SLP189 DENSITY ALT 900FT
KDTW 
20nm S 
251053Z 00000KT 10SM FEW250 20/17 A3011 RMK AO2 SLP191 T02000167
TAF
KDET 
11nm SE 
250520Z 2506/2606 17003KT P6SM SKC FM251600 16008KT P6SM SCT250 FM260100 15004KT P6SM BKN120
KPTK 
13nm NW 
250520Z 2506/2606 19003KT P6SM SKC FM251600 17008KT P6SM SCT250 FM260100 16004KT P6SM BKN120
KMTC 
17nm E 
250900Z 2509/2615 VRB06KT 9999 SKC QNH2992INS BECMG 2605/2606 VRB06KT 9999 BKN060 QNH2990INS BECMG 2614/2615 VRB06KT 9999 BKN030 OVC050 QNH2992INS TX29/2523Z TN16/2509Z LAST NO AMDS AFT 2509 NEXT 2511
CYQG 
19nm SE 
250545Z 2506/2606 VRB03KT P6SM SKC BECMG 2506/2508 18005KT FM260300 VRB03KT P6SM BKN140 RMK FCST BASED ON AUTO OBS. NXT FCST BY 251200Z
KDTW 
20nm S 
250829Z 2508/2612 17003KT P6SM SKC FM251600 16008KT P6SM SCT250 FM260100 15004KT P6SM BKN120 FM260800 17005KT P6SM SCT060 OVC090
NOTAMs
Click for the latest NOTAMs
NOTAMs are issued by the DoD/FAA and will open in a separate window not controlled by AirNav.

 

 
 

FBO, Fuel Providers, and Aircraft Ground Support

  
 Business Name 
 
 Contact 
 
 Services / Description 
 
Fuel Prices
 
Comments
  
24hrfuel 248-781-0241
[web site]
[email]
Aviation fuel

More info about 24hrfuel
Titan
100LL Jet A
SS $7.49 $5.49 
 Updated 20-Jun-2022
 
   write
JDS Pump-N-Go 248-288-6100
[email]
Aviation fuel, Aircraft parking (ramp or tiedown), Hangar leasing / sales

More info about JDS Pump-N-Go
Avfuel
100LL Jet A
SS $7.93 $6.77 
 Updated 20-Jun-2022
 
   write
SS=Self service
Update Fuel Prices
 

Would you like to see your business listed on this page?

 If your business provides an interesting product or service to pilots, flight crews, aircraft, or users of the Oakland/Troy Airport, you should consider listing it here.  To start the listing process, click on the button below
 
Add a business
 

Other Pages about Oakland/Troy Airport

Oakland/Troy Airport Website
Page from the Michigan Airport Directory (PDF)
 
Update a link
 
Copyright © AirNav, LLC. All rights reserved. Privacy Policy  Contact